Terminal Aerodrome Forecast
Issued by NWS

Home | Current Version | Previous Version | Text Only | Print | Product List | Glossary On
Versions: 1 2 3 4 5 6 7 8 9 10 11 12 13 14 15 16 17 18 19 20
000
FTUS46 KEKA 021732
TAFCEC
TAF
KCEC 021732Z 0218/0318 05004KT P6SM FEW100
     FM022100 35006KT P6SM BKN100
     FM030400 VRB03KT P6SM BKN050
     FM031000 VRB03KT 6SM -RA FEW015 OVC025
     FM031500 02005KT P6SM -SHRA FEW015 OVC025=

USA.gov is the U.S. government's official web portal to all federal, state and local government web resources and services.